Latest Weather Observations for Brisbane Airport

IDQ60801

Issued at 10:32 am EST Thursday 28 July 2016 (issued every 30 minutes, with the page automatically refreshed every 10 minutes)

About weather observations | Map of weather stations | Latest weather observations for QLD | Other Formats
Station Details ID: 040842 Name: BRISBANE AERO Lat: -27.39 Lon: 153.13 Height: 4.51 m
Data from the previous 72 hours. | See also: Recent months at Brisbane Airport
Date/Time
EST
Temp
°C
App
Temp
°C
Dew
Point
°C
Rel
Hum
%
Delta-T
°C
Wind Press
QNH
hPa
Press
MSL
hPa
Rain since
9am
mm
Dir  Spd
km/h
Gust
km/h
Spd
kts
Gust
kts
28/10:00am 17.4 12.2 2.3 36 6.8 SSW 19 28 10 15 1024.4 1024.3 0.0
28/09:30am 16.9 11.2 2.8 39 6.4 SW 22 28 12 15 1024.4 1024.3 0.0
28/09:00am 15.5 9.1 3.4 44 5.5 SSW 26 32 14 17 1024.2 1024.1 0.0
28/08:30am 14.4 9.5 4.1 50 4.7 SW 19 26 10 14 1024.1 1024.0 0.0
28/08:00am 12.3 8.8 5.4 63 3.2 SSW 13 17 7 9 1023.8 1023.7 0.0
28/07:30am 10.4 7.1 4.6 67 2.6 SSW 11 15 6 8 1023.2 1023.1 0.0
28/07:00am 9.8 5.9 3.3 64 2.8 SSW 13 17 7 9 1022.9 1022.8 0.0
28/06:30am 8.0 3.7 3.5 73 1.9 SSW 15 17 8 9 1022.7 1022.6 0.0
28/06:00am 7.4 3.1 3.4 76 1.7 SSW 15 17 8 9 1022.2 1022.1 0.0
28/05:30am 9.5 5.9 3.2 65 2.7 SSW 11 13 6 7 1021.9 1021.8 0.0
28/05:00am 9.0 5.5 3.7 69 2.3 SSW 11 15 6 8 1021.5 1021.4 0.0
28/04:30am 8.8 5.2 3.2 68 2.4 SSW 11 13 6 7 1021.1 1021.0 0.0
28/04:00am 10.1 7.0 3.4 63 2.9 SSW 9 9 5 5 1021.3 1021.2 0.0
28/03:30am 9.6 6.1 3.6 66 2.6 SSW 11 13 6 7 1021.3 1021.2 0.0
28/03:00am 7.9 3.7 3.9 76 1.7 SW 15 17 8 9 1021.3 1021.2 0.0
28/02:30am 8.1 4.4 4.4 77 1.6 SW 13 15 7 8 1021.5 1021.4 0.0
28/02:00am 7.4 3.2 3.9 78 1.5 SW 15 17 8 9 1021.5 1021.4 0.0
28/01:30am 8.9 5.1 4.1 72 2.1 SSW 13 15 7 8 1021.8 1021.7 0.0
28/01:00am 8.5 5.1 4.1 74 1.9 SSW 11 13 6 7 1021.8 1021.7 0.0
28/12:30am 9.0 5.9 3.7 69 2.3 SW 9 13 5 7 1021.8 1021.7 0.0
28/12:00am 10.1 8.2 4.7 69 2.4 SSW 4 9 2 5 1021.5 1021.4 0.0
 
Date/Time
EST
Temp
°C
App
Temp
°C
Dew
Point
°C
Rel
Hum
%
Delta-T
°C
Wind Press
QNH
hPa
Press
MSL
hPa
Rain since
9am
mm
Dir  Spd
km/h
Gust
km/h
Spd
kts
Gust
kts
27/11:30pm 10.0 8.7 4.1 67 2.6 CALM 0 0 0 0 1021.5 1021.4 0.0
27/11:00pm 10.7 8.3 4.4 65 2.8 SSW 6 9 3 5 1021.3 1021.2 0.0
27/10:30pm 11.1 8.5 4.1 62 3.1 SSW 7 11 4 6 1021.2 1021.1 0.0
27/10:00pm 11.5 9.0 4.6 62 3.1 S 7 9 4 5 1021.2 1021.1 0.0
27/09:30pm 12.4 10.4 4.2 57 3.7 SW 4 9 2 5 1021.0 1020.9 0.0
27/09:00pm 11.1 10.0 4.9 65 2.8 CALM 0 0 0 0 1020.7 1020.6 0.0
27/08:30pm 12.9 9.8 3.8 54 4.1 SSW 9 9 5 5 1020.3 1020.2 0.0
27/08:00pm 12.1 10.1 4.6 60 3.4 NW 4 9 2 5 1019.8 1019.7 0.0
27/07:30pm 12.4 10.0 4.2 57 3.7 WNW 6 7 3 4 1019.3 1019.2 0.0
27/07:00pm 13.4 10.7 3.9 52 4.3 NW 7 9 4 5 1018.9 1018.8 0.0
27/06:30pm 14.9 12.3 4.0 48 5.0 WNW 7 9 4 5 1018.4 1018.3 0.0
27/06:00pm 15.9 12.4 3.7 44 5.6 W 11 13 6 7 1018.0 1017.9 0.0
27/05:30pm 16.8 13.0 3.9 42 6.0 WNW 13 17 7 9 1017.6 1017.6 0.0
27/05:00pm 18.2 13.5 3.0 36 7.0 W 17 26 9 14 1017.3 1017.3 0.0
27/04:30pm 18.4 13.0 2.4 34 7.3 W 20 32 11 17 1017.0 1017.0 0.0
27/04:00pm 19.7 15.1 1.3 29 8.3 WNW 15 19 8 10 1016.7 1016.7 0.0
27/03:30pm 19.2 13.8 2.2 32 7.8 W 20 26 11 14 1016.7 1016.7 0.0
27/03:00pm 18.6 12.9 3.1 35 7.2 W 22 30 12 16 1016.6 1016.6 0.0
27/02:30pm 18.4 13.2 2.7 35 7.2 W 19 26 10 14 1017.0 1017.0 0.0
27/02:00pm 17.9 11.2 1.6 33 7.3 W 26 33 14 18 1017.0 1017.0 0.0
27/01:30pm 18.4 12.5 1.4 32 7.6 WSW 22 30 12 16 1017.2 1017.2 0.0
27/01:00pm 18.5 12.9 1.3 31 7.7 WSW 20 32 11 17 1017.3 1017.3 0.0
27/12:30pm 18.3 12.3 1.2 31 7.6 WSW 22 32 12 17 1017.8 1017.8 0.0
27/12:00pm 17.8 12.4 1.4 33 7.3 WSW 19 28 10 15 1018.2 1018.1 0.0
27/11:30am 17.3 11.7 1.5 34 7.0 WSW 20 28 11 15 1018.7 1018.6 0.0
27/11:00am 17.2 10.1 1.4 34 7.0 W 28 32 15 17 1018.6 1018.5 0.0
27/10:30am 17.1 11.5 1.5 35 6.9 WSW 20 28 11 15 1019.1 1019.0 0.0
27/10:00am 16.8 10.8 1.0 34 6.9 WSW 22 28 12 15 1019.3 1019.2 0.0
27/09:30am 16.7 11.3 1.2 35 6.8 WSW 19 24 10 13 1019.0 1018.9 0.0
27/09:00am 16.6 11.2 1.4 36 6.7 WSW 19 26 10 14 1018.7 1018.6 0.2
27/08:30am 16.5 11.4 0.5 34 6.9 WSW 17 26 9 14 1018.7 1018.6 0.2
27/08:00am 16.6 11.1 0.7 34 6.9 WSW 19 26 10 14 1018.7 1018.6 0.2
27/07:30am 16.5 11.1 1.5 36 6.6 WSW 19 24 10 13 1018.5 1018.4 0.0
27/07:00am 15.8 11.4 2.7 41 5.9 WSW 15 20 8 11 1018.6 1018.5 0.0
27/06:30am 15.8 12.1 2.4 40 6.0 W 11 13 6 7 1018.5 1018.4 0.0
27/06:00am 15.6 12.0 2.7 42 5.8 NW 11 13 6 7 1018.3 1018.2 0.0
27/05:30am 15.2 11.3 3.6 46 5.3 NW 13 13 7 7 1017.6 1017.6 0.0
27/05:00am 14.6 10.5 4.1 49 4.8 NNW 15 19 8 10 1017.6 1017.6 0.0
27/04:30am 14.3 11.9 5.1 54 4.3 WNW 7 9 4 5 1017.4 1017.4 0.0
27/04:00am 14.5 10.9 4.8 52 4.5 NW 13 13 7 7 1017.2 1017.2 0.0
27/03:30am 14.5 10.9 5.1 53 4.4 WNW 13 13 7 7 1017.4 1017.4 0.0
27/03:00am 15.0 12.1 4.7 50 4.8 NW 9 11 5 6 1017.5 1017.5 0.0
27/02:30am 14.6 12.3 5.5 54 4.3 W 7 9 4 5 1017.4 1017.4 0.0
27/02:00am 15.2 12.6 4.4 48 5.0 NNW 7 11 4 6 1017.3 1017.3 0.0
27/01:30am 15.3 12.0 4.3 48 5.1 NNW 11 13 6 7 1017.2 1017.2 0.0
27/01:00am 15.1 11.9 5.1 51 4.7 NW 11 11 6 6 1017.6 1017.6 0.0
27/12:30am 14.8 11.4 5.8 55 4.3 NNW 13 15 7 8 1017.3 1017.3 0.0
27/12:00am 15.0 12.3 5.8 54 4.4 NW 9 13 5 7 1017.6 1017.6 0.0
 
Date/Time
EST
Temp
°C
App
Temp
°C
Dew
Point
°C
Rel
Hum
%
Delta-T
°C
Wind Press
QNH
hPa
Press
MSL
hPa
Rain since
9am
mm
Dir  Spd
km/h
Gust
km/h
Spd
kts
Gust
kts
26/11:30pm 15.0 12.4 6.3 56 4.2 NNW 9 9 5 5 1017.3 1017.3 0.0
26/11:00pm 15.0 13.8 6.3 56 4.2 NW 2 6 1 3 1017.4 1017.4 0.0
26/10:30pm 15.1 13.1 6.9 58 4.0 NW 7 11 4 6 1017.7 1017.7 0.0
26/10:00pm 14.9 12.6 7.4 61 3.7 NNW 9 11 5 6 1017.7 1017.7 0.0
26/09:30pm 15.3 13.8 6.9 57 4.1 W 4 9 2 5 1017.6 1017.6 0.0
26/09:00pm 15.8 12.9 6.3 53 4.6 NNW 11 17 6 9 1018.0 1017.9 0.0
26/08:30pm 15.8 12.3 7.3 57 4.2 NW 15 19 8 10 1017.7 1017.7 0.0
26/08:00pm 16.0 13.3 9.0 63 3.6 NNW 13 15 7 8 1017.5 1017.5 0.0
26/07:30pm 16.5 13.6 8.0 57 4.3 NNW 13 15 7 8 1017.4 1017.4 0.0
26/07:00pm 15.4 12.7 8.9 65 3.3 N 13 19 7 10 1017.1 1017.1 0.0
26/06:30pm 15.0 12.5 8.2 64 3.4 N 11 13 6 7 1016.7 1016.7 0.0
26/06:00pm 14.7 12.8 7.6 62 3.5 NNE 7 9 4 5 1016.4 1016.4 0.0
26/05:30pm 14.8 12.1 7.3 61 3.7 N 11 15 6 8 1016.3 1016.3 0.0
26/05:00pm 15.4 13.6 7.3 58 4.0 NNW 6 7 3 4 1016.4 1016.4 0.0
26/04:30pm 16.9 14.4 6.5 50 5.1 NNW 9 9 5 5 1016.4 1016.4 0.0
26/04:00pm 17.5 14.7 5.2 44 5.9 NNW 9 11 5 6 1016.4 1016.4 0.0
26/03:30pm 17.8 14.7 5.7 45 5.9 N 11 15 6 8 1016.5 1016.5 0.0
26/03:00pm 18.3 15.1 2.9 36 7.1 NW 9 17 5 9 1016.3 1016.3 0.0
26/02:30pm 18.2 15.0 3.1 36 7.0 NNW 9 15 5 8 1016.3 1016.3 0.0
26/02:00pm 18.5 14.8 2.3 34 7.4 N 11 13 6 7 1016.8 1016.8 0.0
26/01:30pm 18.5 14.8 2.6 34 7.3 WSW 11 15 6 8 1017.2 1017.2 0.0
26/01:00pm 18.2 14.6 2.7 35 7.1 WNW 11 17 6 9 1017.3 1017.3 0.0
26/12:30pm 18.6 14.6 2.8 35 7.3 WSW 13 22 7 12 1018.0 1017.9 0.0
26/12:00pm 19.0 14.5 2.4 33 7.6 WSW 15 24 8 13 1018.3 1018.2 0.0
26/11:30am 17.5 12.1 1.2 33 7.2 SW 19 26 10 14 1018.9 1018.8 0.0
26/11:00am 17.4 12.7 0.7 32 7.3 SW 15 19 8 10 1019.4 1019.3 0.0
26/10:30am 16.9 11.9 1.5 35 6.8 WSW 17 24 9 13 1019.5 1019.4 0.0
26/10:00am 16.4 11.7 1.0 35 6.7 WSW 15 20 8 11 1019.6 1019.5 0.0
26/09:30am 16.4 12.9 1.4 36 6.6 W 9 17 5 9 1019.6 1019.5 0.0
26/09:00am 16.2 12.4 1.7 37 6.4 NW 11 13 6 7 1019.7 1019.6 0.0
26/08:30am 14.7 12.1 3.1 45 5.2 WNW 6 9 3 5 1019.6 1019.5 0.0
26/08:00am 14.0 11.5 4.7 53 4.3 W 7 9 4 5 1019.1 1019.0 0.0
26/07:30am 13.6 10.6 3.9 52 4.4 W 9 11 5 6 1019.2 1019.1 0.0
26/07:00am 13.0 11.8 4.7 57 3.8 CALM 0 2 0 1 1019.1 1019.0 0.0
26/06:30am 13.3 10.2 3.5 51 4.4 W 9 13 5 7 1018.6 1018.5 0.0
26/06:00am 12.5 10.5 4.3 57 3.7 NE 4 7 2 4 1018.4 1018.3 0.0
26/05:30am 13.3 10.2 3.5 51 4.4 W 9 13 5 7 1018.5 1018.4 0.0
26/05:00am 11.5 8.8 5.4 66 2.8 W 9 11 5 6 1018.3 1018.2 0.0
26/04:30am 11.9 9.1 5.1 63 3.1 NNW 9 11 5 6 1017.6 1017.6 0.0
26/04:00am 11.7 9.4 5.7 66 2.8 WNW 7 11 4 6 1017.7 1017.7 0.0
26/03:30am 12.6 9.1 5.3 61 3.4 W 13 13 7 7 1017.7 1017.7 0.0
26/03:00am 12.4 10.1 5.8 64 3.1 W 7 13 4 7 1017.7 1017.7 0.0
26/02:30am 12.6 9.5 5.5 62 3.3 W 11 15 6 8 1018.1 1018.0 0.0
26/02:00am 11.9 9.6 5.9 66 2.8 NW 7 11 4 6 1017.7 1017.7 0.0
26/01:30am 12.2 10.0 6.0 66 2.9 WNW 7 9 4 5 1018.3 1018.2 0.0
26/01:00am 11.5 10.2 5.9 68 2.6 NNW 2 9 1 5 1018.5 1018.4 0.0
26/12:30am 12.3 9.6 5.4 63 3.2 W 9 11 5 6 1018.6 1018.5 0.0
26/12:00am 12.7 11.7 5.4 61 3.4 CALM 0 0 0 0 1018.3 1018.2 0.0
 
Date/Time
EST
Temp
°C
App
Temp
°C
Dew
Point
°C
Rel
Hum
%
Delta-T
°C
Wind Press
QNH
hPa
Press
MSL
hPa
Rain since
9am
mm
Dir  Spd
km/h
Gust
km/h
Spd
kts
Gust
kts
25/11:30pm 14.0 11.6 4.4 52 4.4 WSW 6 7 3 4 1018.2 1018.1 0.0
25/11:00pm 13.6 11.2 4.4 53 4.2 SW 6 7 3 4 1018.0 1017.9 0.0
25/10:30pm 14.0 12.1 4.7 53 4.3 SW 4 9 2 5 1018.1 1018.0 0.0
25/10:00pm 14.2 11.4 5.2 54 4.2 WSW 9 13 5 7 1018.3 1018.2 0.0
25/09:30pm 14.7 12.1 4.0 48 4.9 SW 7 11 4 6 1018.3 1018.2 0.0
25/09:00pm 14.4 11.5 4.4 51 4.6 SW 9 11 5 6 1018.1 1018.0 0.0
25/08:30pm 14.9 13.6 4.0 48 5.0 CALM 0 6 0 3 1018.0 1017.9 0.0
25/08:00pm 14.9 12.3 4.0 48 5.0 WSW 7 13 4 7 1017.5 1017.5 0.0
25/07:30pm 16.0 11.7 3.3 42 5.8 WSW 15 20 8 11 1017.4 1017.4 0.0
25/07:00pm 15.0 11.2 3.9 47 5.1 WSW 13 15 7 8 1017.2 1017.2 0.0
25/06:30pm 17.8 14.2 2.7 36 6.9 W 11 15 6 8 1016.8 1016.8 0.0
25/06:00pm 18.3 13.8 2.3 34 7.3 W 15 19 8 10 1016.2 1016.2 0.0
25/05:30pm 19.4 14.5 1.8 31 8.0 W 17 19 9 10 1015.9 1015.9 0.0
25/05:00pm 20.3 14.3 1.0 27 8.7 W 22 35 12 19 1015.6 1015.6 0.0
25/04:30pm 21.2 17.9 0.2 24 9.4 NE 7 13 4 7 1015.5 1015.5 0.0
25/04:00pm 21.7 18.2 1.2 25 9.4 NNE 9 15 5 8 1015.5 1015.5 0.0
25/03:30pm 21.9 16.1 0.1 23 9.8 W 20 26 11 14 1015.3 1015.3 0.0
25/03:00pm 21.9 16.2 -0.7 22 10.0 W 19 30 10 16 1015.1 1015.1 0.0
25/02:30pm 22.2 16.9 1.8 26 9.5 W 19 26 10 14 1015.1 1015.1 0.0
25/02:00pm 21.7 16.0 0.8 25 9.5 W 20 32 11 17 1015.5 1015.5 0.0
25/01:30pm 21.4 15.4 1.3 26 9.2 WSW 22 30 12 16 1015.7 1015.7 0.0
25/01:00pm 21.0 16.3 0.9 26 9.1 W 15 24 8 13 1016.1 1016.1 0.0
25/12:30pm 20.5 15.9 1.7 28 8.6 WNW 15 30 8 16 1016.4 1016.4 0.0
25/12:00pm 19.7 15.4 1.3 29 8.3 W 13 17 7 9 1016.9 1016.9 0.0
25/11:30am 19.0 14.9 2.1 32 7.7 WSW 13 24 7 13 1017.6 1017.6 0.0
25/11:00am 18.5 14.4 2.3 34 7.4 SSW 13 24 7 13 1018.1 1018.0 0.0

Other Formats:

Comma delimited format used in spreadsheet applications
http://www.bom.gov.au/fwo/IDQ60801/IDQ60801.94578.axf

JavaScript Object Notation format (JSON) in row-major order
http://www.bom.gov.au/fwo/IDQ60801/IDQ60801.94578.json